Time;durP1;ratioP1;P1;durP2;ratioP2;P2;SDS_P1;SDS_P2;PMS_P1;PMS_P2;Temp;Humidity;BMP_temperature;BMP_pressure;BME280_temperature;BME280_humidity;BME280_pressure;Samples;Min_cycle;Max_cycle;Signal;HPM_P1;HPM_P2
2022/12/29 00:01:52;;;;;;;6.05;1.05;;;8.50;99.90;;;;;;4977349;28;20088;-94
2022/12/29 00:04:18;;;;;;;5.60;1.38;;;8.40;99.90;;;;;;4980361;28;20018;-93
2022/12/29 00:06:46;;;;;;;7.45;1.08;;;8.40;99.90;;;;;;4981678;28;20034;-91
2022/12/29 00:09:13;;;;;;;5.10;1.02;;;8.40;99.90;;;;;;4997920;28;20349;-93
2022/12/29 00:11:42;;;;;;;11.30;1.05;;;8.40;99.90;;;;;;4996892;28;20030;-92
2022/12/29 00:16:55;;;;;;;11.80;1.90;;;8.40;99.90;;;;;;4996579;28;20129;-93
2022/12/29 00:36:34;;;;;;;8.27;1.52;;;8.30;99.90;;;;;;4997050;28;20041;-91
2022/12/29 00:44:35;;;;;;;12.00;1.80;;;8.20;99.90;;;;;;4992585;28;20478;-90
2022/12/29 00:47:04;;;;;;;10.93;1.17;;;8.20;99.90;;;;;;4979544;28;20480;-90
2022/12/29 00:49:30;;;;;;;10.15;1.10;;;8.20;99.90;;;;;;4971722;28;20025;-90
2022/12/29 00:52:07;;;;;;;4.50;0.88;;;8.20;99.90;;;;;;4979118;28;20514;-90
2022/12/29 00:54:38;;;;;;;7.00;1.02;;;8.20;99.90;;;;;;4979105;28;20037;-90
2022/12/29 00:57:07;;;;;;;;;;;8.20;99.90;;;;;;4979490;28;20038;-89
2022/12/29 00:59:37;;;;;;;11.52;1.40;;;8.20;99.90;;;;;;4979035;28;19916;-90
2022/12/29 01:02:03;;;;;;;11.38;2.35;;;8.10;99.90;;;;;;4979013;28;20057;-92
2022/12/29 01:04:29;;;;;;;11.77;2.03;;;8.10;99.90;;;;;;4979538;28;20038;-90
2022/12/29 01:06:54;;;;;;;5.80;1.17;;;8.10;99.90;;;;;;4979143;28;20038;-91
2022/12/29 01:12:07;;;;;;;10.52;2.05;;;8.10;99.90;;;;;;4996021;28;20490;-91
2022/12/29 01:14:33;;;;;;;7.82;0.98;;;8.20;99.90;;;;;;4978620;28;20038;-91
2022/12/29 01:17:01;;;;;;;7.18;0.95;;;8.20;99.90;;;;;;4978213;28;20031;-91
2022/12/29 01:19:27;;;;;;;9.02;1.27;;;8.20;99.90;;;;;;4978256;28;20042;-92
2022/12/29 01:21:56;;;;;;;8.52;2.33;;;8.20;99.90;;;;;;4978606;28;20045;-92
2022/12/29 01:24:26;;;;;;;10.75;2.00;;;8.20;99.90;;;;;;4978634;28;20113;-90
2022/12/29 01:26:52;;;;;;;8.10;1.00;;;8.20;99.90;;;;;;4979122;28;20034;-90
2022/12/29 01:29:18;;;;;;;2.95;1.23;;;8.20;99.90;;;;;;4995540;28;20026;-90
2022/12/29 01:31:45;;;;;;;10.43;1.20;;;8.20;99.90;;;;;;4978712;28;20094;-90
2022/12/29 01:34:11;;;;;;;11.88;2.85;;;8.20;99.90;;;;;;4978739;28;20034;-91
2022/12/29 01:36:37;;;;;;;2.97;1.20;;;8.20;99.90;;;;;;4976337;28;20042;-90
2022/12/29 01:39:02;;;;;;;9.55;1.20;;;8.20;99.90;;;;;;4978569;28;20410;-91
2022/12/29 01:41:28;;;;;;;10.13;1.10;;;8.20;99.90;;;;;;4978274;28;20066;-90
2022/12/29 01:43:56;;;;;;;8.85;1.52;;;8.20;99.90;;;;;;4978196;28;20054;-91
2022/12/29 01:46:25;;;;;;;10.32;2.72;;;8.20;99.90;;;;;;4978022;28;20587;-91
2022/12/29 01:48:55;;;;;;;7.80;1.05;;;8.10;99.90;;;;;;4977560;28;20031;-89
2022/12/29 01:51:24;;;;;;;9.95;1.45;;;8.10;99.90;;;;;;4978437;28;20039;-91
2022/12/29 01:53:50;;;;;;;4.35;0.85;;;8.10;99.90;;;;;;4977891;28;20030;-91
2022/12/29 01:56:18;;;;;;;8.18;1.58;;;8.00;99.90;;;;;;4977519;28;20053;-90
2022/12/29 01:58:48;;;;;;;12.32;1.40;;;7.90;99.90;;;;;;4979106;28;20041;-91
2022/12/29 02:01:15;;;;;;;14.55;2.65;;;7.90;99.90;;;;;;4980350;28;20034;-95
2022/12/29 02:03:42;;;;;;;11.02;1.40;;;7.90;99.90;;;;;;4982432;28;20403;-93
2022/12/29 02:06:15;;;;;;;9.00;1.67;;;7.80;99.90;;;;;;4984369;28;20077;-93
2022/12/29 02:08:46;;;;;;;8.88;0.98;;;7.70;99.90;;;;;;5010710;28;20013;-95
2022/12/29 02:11:12;;;;;;;3.33;0.60;;;7.70;99.90;;;;;;4980370;28;20018;-95
2022/12/29 02:13:39;;;;;;;0.60;0.20;;;7.50;99.90;;;;;;4997038;28;20068;-91
2022/12/29 02:16:41;;;;;;;0.25;0.20;;;7.20;99.90;;;;;;4990811;28;20053;-95
2022/12/29 02:19:44;;;;;;;1.58;0.20;;;6.90;99.90;;;;;;4969898;28;20042;-92
2022/12/29 02:22:36;;;;;;;1.33;0.35;;;6.60;99.90;;;;;;5009093;28;20061;-91
2022/12/29 02:25:27;;;;;;;1.20;0.30;;;6.40;99.90;;;;;;5013341;28;20057;-92
2022/12/29 02:28:02;;;;;;;0.68;0.25;;;6.30;99.90;;;;;;4994034;28;20034;-95
2022/12/29 02:30:39;;;;;;;0.63;0.40;;;6.20;99.90;;;;;;4997691;28;20122;-95
2022/12/29 02:33:20;;;;;;;2.78;0.90;;;6.10;99.90;;;;;;4999224;28;20123;-94
2022/12/29 02:36:30;;;;;;;1.45;1.30;;;6.10;99.90;;;;;;5002182;28;20023;-96
2022/12/29 02:39:09;;;;;;;0.87;0.60;;;6.00;99.90;;;;;;4906441;29;20076;-94
2022/12/29 02:42:27;;;;;;;0.95;0.30;;;6.00;99.90;;;;;;4901373;29;20040;-93
2022/12/29 02:45:07;;;;;;;0.40;0.25;;;5.90;99.90;;;;;;4861036;29;20029;-94
2022/12/29 02:47:41;;;;;;;0.65;0.32;;;5.90;99.90;;;;;;4850154;29;20045;-94
2022/12/29 02:50:31;;;;;;;1.23;0.20;;;5.90;99.90;;;;;;4863599;29;20037;-93
2022/12/29 02:53:04;;;;;;;0.20;0.20;;;5.90;99.90;;;;;;4867756;29;20041;-95
2022/12/29 02:55:30;;;;;;;1.17;0.40;;;5.90;99.90;;;;;;4850176;29;20037;-93
2022/12/29 02:58:18;;;;;;;2.72;0.30;;;5.90;99.90;;;;;;4846879;29;20085;-95
2022/12/29 03:01:07;;;;;;;0.52;0.35;;;5.90;99.90;;;;;;4848377;29;20113;-94
2022/12/29 03:03:35;;;;;;;0.93;0.40;;;6.00;99.90;;;;;;4847300;29;20097;-94
2022/12/29 03:06:31;;;;;;;2.55;0.68;;;6.00;99.90;;;;;;4853558;29;20037;-95
2022/12/29 03:09:17;;;;;;;1.65;0.77;;;6.00;99.90;;;;;;4837082;29;20116;-95
2022/12/29 03:12:08;;;;;;;3.30;0.95;;;6.00;99.90;;;;;;4845041;29;20034;-93
2022/12/29 03:18:01;;;;;;;3.72;0.80;;;6.10;99.90;;;;;;4916201;29;20046;-94
2022/12/29 03:20:38;;;;;;;1.73;0.63;;;6.10;99.90;;;;;;4899900;29;20044;-95
2022/12/29 03:23:07;;;;;;;3.40;1.90;;;6.20;99.90;;;;;;4954912;28;20046;-94
2022/12/29 03:25:39;;;;;;;3.22;0.90;;;6.20;99.90;;;;;;4959402;28;20035;-95
2022/12/29 03:28:10;;;;;;;3.90;1.42;;;6.20;99.90;;;;;;4961508;28;20487;-95
2022/12/29 03:30:37;;;;;;;;;;;6.20;99.90;;;;;;4968135;28;20329;-94
2022/12/29 03:33:07;;;;;;;3.72;1.00;;;6.20;99.90;;;;;;4965812;28;19913;-95
2022/12/29 03:35:38;;;;;;;4.73;1.20;;;6.20;99.90;;;;;;4962039;28;20063;-95
2022/12/29 03:38:11;;;;;;;6.10;1.50;;;6.30;99.90;;;;;;4960299;28;20290;-93
2022/12/29 03:40:40;;;;;;;6.57;1.10;;;6.30;99.90;;;;;;4958825;28;20035;-92
2022/12/29 03:43:06;;;;;;;2.90;0.82;;;6.30;99.90;;;;;;4975061;28;20043;-94
2022/12/29 03:45:31;;;;;;;1.35;0.70;;;6.40;99.90;;;;;;4984311;28;20023;-94
2022/12/29 03:47:57;;;;;;;2.80;1.20;;;6.30;99.90;;;;;;4984087;28;20372;-93
2022/12/29 03:50:23;;;;;;;5.80;0.90;;;6.40;99.90;;;;;;4979733;28;20034;-93
2022/12/29 03:52:48;;;;;;;2.97;1.10;;;6.40;99.90;;;;;;4977140;28;20180;-94
2022/12/29 03:55:14;;;;;;;3.88;0.85;;;6.40;99.90;;;;;;4976491;28;20030;-93
2022/12/29 03:57:40;;;;;;;4.90;1.17;;;6.40;99.90;;;;;;4977331;28;20547;-92
2022/12/29 04:00:08;;;;;;;3.58;0.80;;;6.40;99.90;;;;;;4977418;28;20480;-95
2022/12/29 04:02:34;;;;;;;4.00;1.00;;;6.40;99.90;;;;;;4961841;28;20201;-93
2022/12/29 04:05:05;;;;;;;4.05;1.05;;;6.40;99.90;;;;;;4978219;28;20080;-95
2022/12/29 04:07:31;;;;;;;0.98;0.80;;;6.40;99.90;;;;;;4977976;28;20173;-93
2022/12/29 04:09:59;;;;;;;4.10;1.02;;;6.40;99.90;;;;;;4987885;28;20026;-93
2022/12/29 04:12:24;;;;;;;6.93;1.10;;;6.40;99.90;;;;;;4981887;28;20031;-95
2022/12/29 04:14:52;;;;;;;4.40;0.98;;;6.50;99.90;;;;;;4977904;28;20042;-94
2022/12/29 04:17:17;;;;;;;1.38;0.70;;;6.50;99.90;;;;;;4977626;28;20121;-96
2022/12/29 04:19:43;;;;;;;4.28;1.02;;;6.50;99.90;;;;;;4978227;28;20062;-93
2022/12/29 04:22:09;;;;;;;5.25;1.00;;;6.50;99.90;;;;;;4978265;28;20039;-94
2022/12/29 04:24:34;;;;;;;5.00;1.00;;;6.50;99.90;;;;;;4976535;28;20092;-92
2022/12/29 04:27:00;;;;;;;1.55;0.90;;;6.50;99.90;;;;;;4977334;28;20034;-94
2022/12/29 04:29:29;;;;;;;2.05;1.30;;;6.50;99.90;;;;;;4978223;28;20018;-95
2022/12/29 04:31:54;;;;;;;1.92;1.10;;;6.50;99.90;;;;;;4979140;28;20484;-92
2022/12/29 04:34:20;;;;;;;1.92;1.33;;;6.50;99.90;;;;;;4978307;28;20034;-92
2022/12/29 04:36:46;;;;;;;3.17;1.90;;;6.50;99.90;;;;;;4981633;28;20077;-95
2022/12/29 04:39:11;;;;;;;2.67;1.83;;;6.50;99.90;;;;;;4979398;28;20069;-92
2022/12/29 04:41:40;;;;;;;4.57;2.30;;;6.50;99.90;;;;;;4977206;28;20054;-93
2022/12/29 04:44:06;;;;;;;4.72;1.90;;;6.50;99.90;;;;;;4977245;28;20062;-91
2022/12/29 04:46:32;;;;;;;3.80;2.65;;;6.50;99.90;;;;;;4976741;28;20258;-95
2022/12/29 04:48:57;;;;;;;6.05;2.50;;;6.50;99.90;;;;;;4979242;28;20093;-93
2022/12/29 04:51:23;;;;;;;6.85;2.70;;;6.50;99.90;;;;;;4979181;28;20028;-93
2022/12/29 04:53:49;;;;;;;4.47;2.25;;;6.50;99.90;;;;;;4982894;28;20368;-94
2022/12/29 04:56:14;;;;;;;5.68;2.20;;;6.50;99.90;;;;;;4982462;28;20041;-96
2022/12/29 04:58:40;;;;;;;5.68;2.00;;;6.50;99.90;;;;;;4980799;28;20022;-94
2022/12/29 05:01:06;;;;;;;6.25;2.17;;;6.50;99.90;;;;;;4980504;28;20047;-93
2022/12/29 05:03:31;;;;;;;4.72;1.90;;;6.50;99.90;;;;;;4980191;28;20023;-94
2022/12/29 05:05:58;;;;;;;1.30;1.20;;;6.50;99.90;;;;;;4981241;28;20053;-94
2022/12/29 05:08:25;;;;;;;4.15;1.77;;;6.50;99.90;;;;;;4964924;28;20065;-94
2022/12/29 05:10:51;;;;;;;2.22;1.92;;;6.50;99.90;;;;;;4981010;28;20050;-93
2022/12/29 05:13:19;;;;;;;3.78;1.92;;;6.50;99.90;;;;;;4980181;28;20030;-92
2022/12/29 05:15:51;;;;;;;6.72;2.13;;;6.50;99.90;;;;;;4979775;28;20026;-93
2022/12/29 05:18:17;;;;;;;4.15;1.50;;;6.50;99.90;;;;;;4979580;28;20395;-93
2022/12/29 05:20:42;;;;;;;5.53;1.67;;;6.50;99.90;;;;;;4984013;28;20065;-91
2022/12/29 05:23:08;;;;;;;2.50;1.00;;;6.50;99.90;;;;;;4991191;28;20030;-93
2022/12/29 05:25:34;;;;;;;2.40;0.98;;;6.50;99.90;;;;;;4976940;28;20046;-92
2022/12/29 05:27:59;;;;;;;3.97;0.93;;;6.50;99.90;;;;;;4991032;28;20030;-92
2022/12/29 05:30:28;;;;;;;2.65;0.60;;;6.50;99.90;;;;;;4989105;28;20201;-92
2022/12/29 05:32:53;;;;;;;3.55;0.90;;;6.50;99.90;;;;;;4984457;28;20026;-92
2022/12/29 05:35:19;;;;;;;5.15;1.10;;;6.50;99.90;;;;;;4982787;28;20350;-92
2022/12/29 05:37:45;;;;;;;7.03;1.33;;;6.50;99.90;;;;;;4983130;28;20049;-93
2022/12/29 05:40:11;;;;;;;4.72;0.75;;;6.50;99.90;;;;;;4982277;28;20045;-92
2022/12/29 05:42:37;;;;;;;3.95;1.05;;;6.50;99.90;;;;;;4998997;28;20411;-92
2022/12/29 05:45:06;;;;;;;4.10;0.90;;;6.50;99.90;;;;;;4983477;28;20101;-91
2022/12/29 05:47:33;;;;;;;8.82;0.73;;;6.60;99.90;;;;;;4980535;28;20117;-91
2022/12/29 05:49:58;;;;;;;4.25;0.85;;;6.60;99.90;;;;;;4966786;28;20031;-91
2022/12/29 05:52:27;;;;;;;3.30;0.90;;;6.50;99.90;;;;;;4984389;28;20561;-92
2022/12/29 05:54:55;;;;;;;2.42;0.73;;;6.50;99.90;;;;;;4981068;28;20502;-94
2022/12/29 05:57:21;;;;;;;4.63;0.80;;;6.50;99.90;;;;;;4981184;28;20026;-93
2022/12/29 05:59:47;;;;;;;5.72;1.23;;;6.50;99.90;;;;;;4980305;28;20026;-93
2022/12/29 06:02:12;;;;;;;5.68;1.15;;;6.50;99.90;;;;;;4980352;28;20042;-92
2022/12/29 06:04:38;;;;;;;3.50;0.73;;;6.40;99.90;;;;;;4980911;28;20037;-93
2022/12/29 06:07:03;;;;;;;6.57;1.80;;;6.40;99.90;;;;;;4981282;28;20033;-92
2022/12/29 06:09:29;;;;;;;4.25;2.45;;;6.40;99.90;;;;;;4998559;28;20018;-93
2022/12/29 06:11:55;;;;;;;4.05;2.10;;;6.40;99.90;;;;;;4998399;28;20404;-93
2022/12/29 06:14:21;;;;;;;3.00;1.70;;;6.40;99.90;;;;;;4981144;28;20037;-91
2022/12/29 06:16:46;;;;;;;7.93;2.03;;;6.40;99.90;;;;;;4984572;28;20090;-95
2022/12/29 06:19:12;;;;;;;7.35;0.90;;;6.40;99.90;;;;;;4988071;28;20022;-92
2022/12/29 06:21:38;;;;;;;4.93;0.90;;;6.30;99.90;;;;;;4981661;28;20125;-92
2022/12/29 06:24:04;;;;;;;3.60;0.63;;;6.30;99.90;;;;;;4977937;28;20108;-92
2022/12/29 06:26:30;;;;;;;0.82;0.40;;;6.30;99.90;;;;;;4977955;28;20037;-92
2022/12/29 06:28:56;;;;;;;5.57;1.05;;;6.30;99.90;;;;;;4994051;28;20026;-92
2022/12/29 06:31:21;;;;;;;3.35;0.65;;;6.30;99.90;;;;;;4978674;28;20101;-92
2022/12/29 06:33:50;;;;;;;1.92;0.35;;;6.30;99.90;;;;;;4977780;28;20069;-94
2022/12/29 06:36:16;;;;;;;1.30;0.68;;;6.30;99.90;;;;;;4993555;28;20126;-94
2022/12/29 06:38:41;;;;;;;3.45;0.80;;;6.30;99.90;;;;;;4977436;28;20484;-92
2022/12/29 06:41:07;;;;;;;3.67;0.57;;;6.30;99.90;;;;;;4977613;28;20045;-92
2022/12/29 06:43:33;;;;;;;1.52;0.30;;;6.30;99.90;;;;;;4977417;28;20054;-92
2022/12/29 06:46:00;;;;;;;1.77;0.50;;;6.30;99.90;;;;;;4994577;28;20022;-91
2022/12/29 06:48:25;;;;;;;7.22;0.60;;;6.30;99.90;;;;;;4977386;28;20084;-91
2022/12/29 06:50:53;;;;;;;0.20;0.20;;;6.30;99.90;;;;;;4994957;28;20035;-94
2022/12/29 06:53:18;;;;;;;3.42;0.60;;;6.30;99.90;;;;;;4995033;28;20029;-92
2022/12/29 06:55:44;;;;;;;4.63;0.70;;;6.30;99.90;;;;;;4978072;28;20034;-92
2022/12/29 06:58:10;;;;;;;6.05;0.80;;;6.30;99.90;;;;;;4995303;28;20476;-93
2022/12/29 07:00:37;;;;;;;2.33;0.82;;;6.30;99.90;;;;;;4978068;28;20046;-91
2022/12/29 07:03:05;;;;;;;2.03;0.63;;;6.30;99.90;;;;;;4977784;28;20038;-93
2022/12/29 07:05:32;;;;;;;3.03;0.55;;;6.30;99.90;;;;;;4977769;28;20026;-93
2022/12/29 07:07:59;;;;;;;5.43;1.23;;;6.30;99.90;;;;;;4977631;28;20446;-93
2022/12/29 07:10:28;;;;;;;6.85;0.73;;;6.30;99.90;;;;;;4992871;28;20026;-93
2022/12/29 07:12:54;;;;;;;2.80;0.40;;;6.30;99.90;;;;;;4977158;28;20027;-94
2022/12/29 07:15:19;;;;;;;6.25;1.08;;;6.30;99.90;;;;;;4976529;28;20030;-94
2022/12/29 07:17:45;;;;;;;2.50;0.90;;;6.20;99.90;;;;;;4977142;28;20031;-92
2022/12/29 07:20:11;;;;;;;5.57;0.90;;;6.20;99.90;;;;;;4976379;28;20030;-94
2022/12/29 07:22:37;;;;;;;5.07;0.80;;;6.20;99.90;;;;;;4960628;28;20066;-93
2022/12/29 07:25:03;;;;;;;5.57;0.95;;;6.20;99.90;;;;;;4976639;28;20022;-92
2022/12/29 07:27:28;;;;;;;3.33;1.00;;;6.20;99.90;;;;;;4975310;28;20026;-93
2022/12/29 07:29:54;;;;;;;5.90;1.23;;;6.20;99.90;;;;;;4975883;28;20158;-92
2022/12/29 07:32:20;;;;;;;5.30;0.80;;;6.20;99.90;;;;;;4976128;28;20068;-92
2022/12/29 07:34:48;;;;;;;5.03;0.63;;;6.20;99.90;;;;;;4977842;28;20038;-93
2022/12/29 07:37:17;;;;;;;4.22;0.60;;;6.20;99.90;;;;;;4977480;28;20114;-93
2022/12/29 07:39:43;;;;;;;3.70;0.50;;;6.10;99.90;;;;;;4975724;28;20125;-92
2022/12/29 07:42:08;;;;;;;4.10;0.90;;;6.10;99.90;;;;;;4972611;28;20181;-94
2022/12/29 07:44:34;;;;;;;6.88;0.68;;;6.10;99.90;;;;;;4972692;28;20030;-93
2022/12/29 07:47:00;;;;;;;5.22;0.57;;;6.10;99.90;;;;;;4973215;28;20042;-94
2022/12/29 07:49:27;;;;;;;7.35;0.80;;;6.10;99.90;;;;;;4972668;28;20476;-92
2022/12/29 07:52:05;;;;;;;9.65;1.00;;;6.10;99.90;;;;;;4973033;28;20035;-94
2022/12/29 07:54:31;;;;;;;6.15;0.50;;;6.10;99.90;;;;;;4973568;28;20480;-95
2022/12/29 07:57:06;;;;;;;6.68;0.70;;;6.10;99.90;;;;;;4972324;28;20029;-94
2022/12/29 07:59:31;;;;;;;3.97;0.70;;;6.10;99.90;;;;;;4973753;28;20027;-94
2022/12/29 08:01:57;;;;;;;5.32;0.60;;;6.10;99.90;;;;;;4973909;28;20038;-93
2022/12/29 08:04:23;;;;;;;8.68;0.73;;;6.10;99.90;;;;;;4976602;28;20058;-93
2022/12/29 08:06:49;;;;;;;3.30;0.63;;;6.10;99.90;;;;;;4982297;28;20121;-93
2022/12/29 08:09:20;;;;;;;0.68;0.50;;;6.00;99.90;;;;;;4980990;28;20523;-93
2022/12/29 08:11:46;;;;;;;3.58;0.52;;;6.00;99.90;;;;;;4978873;28;20054;-95
2022/12/29 08:14:13;;;;;;;5.25;0.82;;;6.00;99.90;;;;;;4976936;28;20030;-95
2022/12/29 08:16:38;;;;;;;2.38;0.85;;;6.00;99.90;;;;;;4969210;28;20034;-94
2022/12/29 08:19:07;;;;;;;3.80;0.77;;;6.00;99.90;;;;;;4972804;28;20428;-95
2022/12/29 08:21:34;;;;;;;9.23;0.60;;;6.00;99.90;;;;;;4972465;28;20120;-94
2022/12/29 08:24:01;;;;;;;1.38;0.50;;;6.00;99.90;;;;;;4981649;28;20202;-95
2022/12/29 08:26:27;;;;;;;3.35;0.68;;;6.00;99.90;;;;;;4975267;28;20161;-95
2022/12/29 08:28:54;;;;;;;4.95;0.70;;;6.00;99.90;;;;;;4977462;28;20043;-92
2022/12/29 08:31:22;;;;;;;3.00;0.70;;;6.00;99.90;;;;;;4974843;28;20029;-94
2022/12/29 08:33:52;;;;;;;5.68;1.02;;;6.10;99.90;;;;;;4959332;28;20397;-93
2022/12/29 08:36:17;;;;;;;3.07;0.50;;;6.10;99.90;;;;;;4976946;28;20042;-95
2022/12/29 08:38:44;;;;;;;3.97;0.60;;;6.10;99.90;;;;;;4975583;28;20035;-93
2022/12/29 08:41:10;;;;;;;6.65;0.60;;;6.10;99.90;;;;;;4975503;28;20062;-92
2022/12/29 08:43:36;;;;;;;5.65;0.50;;;6.10;99.90;;;;;;4976317;28;20456;-92
2022/12/29 08:46:04;;;;;;;4.28;0.70;;;6.10;99.90;;;;;;4975518;28;20019;-93
2022/12/29 08:48:31;;;;;;;7.30;1.10;;;6.10;99.90;;;;;;4976006;28;20583;-93
2022/12/29 08:50:57;;;;;;;6.85;1.05;;;6.10;99.90;;;;;;4976772;28;20101;-93
2022/12/29 08:53:26;;;;;;;2.42;1.10;;;6.10;99.90;;;;;;4976449;28;20045;-93
2022/12/29 08:55:58;;;;;;;4.07;0.80;;;6.10;99.90;;;;;;4976250;28;20046;-92
2022/12/29 08:58:24;;;;;;;3.13;0.70;;;6.10;99.90;;;;;;4975853;28;20054;-94
2022/12/29 09:00:58;;;;;;;6.93;0.80;;;6.10;99.90;;;;;;4975430;28;20061;-95
2022/12/29 09:03:24;;;;;;;2.15;0.70;;;6.10;99.90;;;;;;4990469;28;20114;-93
2022/12/29 09:05:52;;;;;;;3.33;1.10;;;6.10;99.90;;;;;;4975212;28;20038;-95
2022/12/29 09:08:26;;;;;;;5.20;1.33;;;6.10;99.90;;;;;;4977626;28;20035;-94
2022/12/29 09:11:09;;;;;;;6.68;1.00;;;6.10;99.90;;;;;;4973887;28;20113;-93
2022/12/29 09:13:42;;;;;;;4.10;0.88;;;6.10;99.90;;;;;;4978194;28;20535;-94
2022/12/29 09:16:49;;;;;;;;;;;;;;;;;;;;;
2022/12/29 09:20:13;;;;;;;3.42;0.80;;;6.10;99.90;;;;;;4968976;28;20117;-93
2022/12/29 09:22:54;;;;;;;4.63;0.88;;;6.10;99.90;;;;;;4977384;28;20042;-94
2022/12/29 09:25:32;;;;;;;3.38;1.33;;;6.10;99.90;;;;;;4977150;28;20023;-96
2022/12/29 09:28:10;;;;;;;9.57;1.13;;;6.10;99.90;;;;;;4984470;28;20023;-96
2022/12/29 09:30:36;;;;;;;7.60;1.23;;;6.10;99.90;;;;;;4983320;28;20049;-93
2022/12/29 09:33:03;;;;;;;3.00;0.63;;;6.10;99.90;;;;;;4983102;28;20030;-93
2022/12/29 09:35:28;;;;;;;5.15;0.80;;;6.20;99.90;;;;;;4978464;28;20050;-95
2022/12/29 09:37:59;;;;;;;6.03;0.77;;;6.20;99.90;;;;;;4978533;28;20109;-95
2022/12/29 09:40:37;;;;;;;;;;;6.20;99.90;;;;;;4977166;28;20030;-94
2022/12/29 09:43:33;;;;;;;9.35;1.55;;;6.20;99.90;;;;;;4981088;28;19917;-95
2022/12/29 09:46:26;;;;;;;8.48;1.67;;;6.30;99.90;;;;;;4981774;28;20045;-94
2022/12/29 09:49:40;;;;;;;9.70;2.53;;;6.30;99.90;;;;;;4998029;28;20014;-93
2022/12/29 09:52:16;;;;;;;7.90;2.35;;;6.30;99.90;;;;;;4983358;28;20041;-95
2022/12/29 09:54:54;;;;;;;19.88;1.67;;;6.40;99.90;;;;;;4981117;28;20023;-93
2022/12/29 09:57:32;;;;;;;14.88;3.63;;;6.50;99.90;;;;;;4983980;28;20564;-95
2022/12/29 10:00:16;;;;;;;8.82;1.42;;;6.60;99.90;;;;;;4984899;28;20077;-92
2022/12/29 10:03:17;;;;;;;13.23;2.50;;;6.80;99.90;;;;;;4988880;28;20254;-94
2022/12/29 10:06:07;;;;;;;6.80;1.35;;;7.00;99.90;;;;;;4980356;28;20039;-93
2022/12/29 10:08:59;;;;;;;7.55;1.83;;;7.20;99.90;;;;;;4979489;28;20081;-94
2022/12/29 10:11:32;;;;;;;9.15;1.20;;;7.30;99.90;;;;;;4960665;28;20058;-92
2022/12/29 10:14:31;;;;;;;11.07;1.67;;;7.40;99.90;;;;;;4978734;28;20022;-93
2022/12/29 10:17:35;;;;;;;3.50;1.27;;;7.60;99.90;;;;;;4977761;28;20050;-93
2022/12/29 10:20:07;;;;;;;10.70;2.13;;;7.70;99.90;;;;;;4975279;28;20034;-93
2022/12/29 10:22:49;;;;;;;9.95;1.90;;;7.90;99.90;;;;;;4976951;28;20042;-93
2022/12/29 10:25:25;;;;;;;13.45;1.30;;;8.00;99.90;;;;;;4982202;28;20041;-93
2022/12/29 10:27:54;;;;;;;8.57;1.17;;;8.00;99.90;;;;;;4982526;28;20026;-94
2022/12/29 10:31:04;;;;;;;6.30;1.77;;;8.10;99.90;;;;;;4982595;28;20030;-92
2022/12/29 10:33:37;;;;;;;5.75;1.17;;;8.30;99.90;;;;;;4962682;28;20034;-91
2022/12/29 10:36:13;;;;;;;9.98;1.48;;;8.40;99.90;;;;;;4976599;28;20067;-91
2022/12/29 10:38:53;;;;;;;7.15;1.77;;;8.50;99.90;;;;;;4976198;28;20058;-92
2022/12/29 10:41:43;;;;;;;9.20;1.38;;;8.60;99.90;;;;;;4974254;28;20134;-91
2022/12/29 10:44:16;;;;;;;11.90;1.80;;;8.50;99.90;;;;;;4979560;28;20038;-92
2022/12/29 10:47:02;;;;;;;7.70;1.30;;;8.40;99.90;;;;;;4992339;28;20068;-92
2022/12/29 10:49:32;;;;;;;10.23;1.75;;;8.20;99.90;;;;;;4982518;28;20456;-92
2022/12/29 10:52:04;;;;;;;5.53;0.88;;;8.10;99.90;;;;;;4980989;28;20027;-92
2022/12/29 10:54:42;;;;;;;7.78;2.10;;;8.00;99.90;;;;;;4980430;28;20122;-96
2022/12/29 10:57:43;;;;;;;10.40;1.50;;;8.00;99.90;;;;;;4979063;28;20033;-92
2022/12/29 11:00:21;;;;;;;7.18;1.23;;;8.20;99.90;;;;;;4978712;28;20026;-93
2022/12/29 11:09:47;;;;;;;5.93;1.13;;;8.90;99.90;;;;;;4873525;29;20403;-92
2022/12/29 11:12:31;;;;;;;7.47;1.60;;;8.80;99.90;;;;;;4888534;29;20032;-93
2022/12/29 11:15:16;;;;;;;8.70;1.05;;;8.60;99.90;;;;;;4882114;29;20133;-93
2022/12/29 11:17:46;;;;;;;6.15;0.88;;;8.30;99.90;;;;;;4885609;29;20036;-90
2022/12/29 11:20:37;;;;;;;9.90;1.40;;;8.20;99.90;;;;;;4874907;29;20055;-91
2022/12/29 11:26:17;;;;;;;2.65;1.00;;;8.20;99.90;;;;;;4876945;29;20116;-92
2022/12/29 11:28:46;;;;;;;10.57;1.42;;;8.40;99.90;;;;;;4901611;29;20032;-91
2022/12/29 11:31:17;;;;;;;13.40;2.00;;;8.40;99.90;;;;;;4876174;29;20581;-91
2022/12/29 11:33:42;;;;;;;6.78;1.80;;;8.40;99.90;;;;;;4877342;29;20029;-93
2022/12/29 11:36:34;;;;;;;9.98;2.03;;;8.30;99.90;;;;;;4875027;29;20076;-91
2022/12/29 11:39:01;;;;;;;8.77;1.70;;;8.30;99.90;;;;;;4892148;29;20115;-92
2022/12/29 11:41:31;;;;;;;8.68;1.17;;;8.40;99.90;;;;;;4872049;29;20039;-94
2022/12/29 11:44:04;;;;;;;10.45;1.80;;;8.70;99.90;;;;;;4946725;28;20122;-92
2022/12/29 11:46:37;;;;;;;10.20;1.20;;;9.10;99.90;;;;;;4955479;28;20035;-92
2022/12/29 11:49:04;;;;;;;10.75;1.30;;;9.50;99.90;;;;;;4954900;28;20030;-92
2022/12/29 11:51:34;;;;;;;9.23;1.60;;;9.90;99.90;;;;;;4954700;28;20484;-92
2022/12/29 11:54:05;;;;;;;13.25;1.70;;;10.30;99.90;;;;;;4968657;28;20106;-92
2022/12/29 11:56:41;;;;;;;7.75;1.33;;;10.60;99.90;;;;;;4955000;28;20038;-91
2022/12/29 11:59:29;;;;;;;12.00;1.58;;;10.80;99.90;;;;;;4953366;28;20105;-91
2022/12/29 12:02:00;;;;;;;7.05;1.42;;;10.90;99.90;;;;;;4977553;28;20042;-91
2022/12/29 12:04:30;;;;;;;;;;;11.00;98.60;;;;;;4957362;28;20062;-93
2022/12/29 12:07:32;;;;;;;13.52;1.67;;;11.10;98.50;;;;;;4958594;28;19938;-93
2022/12/29 12:10:00;;;;;;;9.38;2.05;;;11.20;97.20;;;;;;4955501;28;20027;-92
2022/12/29 12:12:55;;;;;;;17.58;2.70;;;11.40;96.70;;;;;;4955149;28;20046;-93
2022/12/29 12:15:36;;;;;;;7.22;1.40;;;11.70;96.00;;;;;;4954717;28;20037;-92
2022/12/29 12:18:18;;;;;;;11.20;1.92;;;11.60;95.60;;;;;;4965903;28;20126;-93
2022/12/29 12:20:51;;;;;;;11.27;1.20;;;11.30;95.10;;;;;;4965119;28;20140;-93
2022/12/29 12:23:32;;;;;;;10.85;2.42;;;11.00;95.50;;;;;;4956700;28;20030;-93
2022/12/29 12:26:15;;;;;;;9.00;1.90;;;10.70;96.20;;;;;;4959853;28;20018;-93
2022/12/29 12:29:10;;;;;;;6.70;1.30;;;10.20;96.40;;;;;;4974264;28;20034;-91
2022/12/29 12:31:57;;;;;;;11.15;1.63;;;10.10;97.10;;;;;;4959334;28;20030;-93
2022/12/29 12:34:24;;;;;;;9.57;1.27;;;9.80;97.50;;;;;;4974224;28;20057;-92
2022/12/29 12:37:08;;;;;;;12.90;1.58;;;9.60;98.10;;;;;;4958902;28;20445;-93
2022/12/29 12:40:13;;;;;;;12.65;1.52;;;9.30;98.90;;;;;;4975551;28;20070;-93
2022/12/29 12:42:47;;;;;;;12.05;1.63;;;9.10;99.60;;;;;;4959070;28;20062;-92
2022/12/29 12:45:39;;;;;;;13.98;2.25;;;8.80;99.90;;;;;;4977219;28;20029;-92
2022/12/29 12:48:21;;;;;;;8.30;1.20;;;8.60;99.90;;;;;;4976252;28;20026;-91
2022/12/29 12:51:00;;;;;;;10.52;2.30;;;8.40;99.90;;;;;;4976576;28;20154;-92
2022/12/29 12:53:45;;;;;;;4.97;1.17;;;8.20;99.90;;;;;;4973012;28;20137;-92
2022/12/29 12:56:41;;;;;;;14.00;2.45;;;8.10;99.90;;;;;;4976509;28;20165;-91
2022/12/29 12:59:31;;;;;;;20.30;4.25;;;8.00;99.90;;;;;;4976616;28;20034;-91
2022/12/29 13:02:15;;;;;;;14.93;2.72;;;7.90;99.90;;;;;;4968526;28;20043;-92
2022/12/29 13:04:41;;;;;;;26.67;5.13;;;7.90;99.90;;;;;;4974511;28;20030;-90
2022/12/29 13:07:30;;;;;;;24.58;4.88;;;7.80;99.90;;;;;;4979916;28;20471;-91
2022/12/29 13:10:08;;;;;;;12.02;2.22;;;7.80;99.90;;;;;;4978504;28;20022;-91
2022/12/29 13:13:11;;;;;;;16.13;2.50;;;7.80;99.90;;;;;;4976368;28;20035;-90
2022/12/29 13:15:55;;;;;;;12.88;1.23;;;7.70;99.90;;;;;;4961969;28;20089;-91
2022/12/29 13:18:42;;;;;;;26.80;5.68;;;7.70;99.90;;;;;;4977212;28;20023;-91
2022/12/29 13:21:35;;;;;;;13.00;2.42;;;7.70;99.90;;;;;;4960013;28;20030;-93
2022/12/29 13:24:22;;;;;;;19.33;3.88;;;7.80;99.90;;;;;;4969998;28;20121;-90
2022/12/29 13:26:57;;;;;;;13.65;2.00;;;8.10;99.90;;;;;;4979159;28;20109;-91
2022/12/29 13:29:39;;;;;;;7.85;1.98;;;8.20;99.90;;;;;;4979124;28;20018;-91
2022/12/29 13:32:05;;;;;;;13.25;1.77;;;8.40;99.90;;;;;;4979739;28;20085;-92
2022/12/29 13:35:13;;;;;;;9.10;1.70;;;8.50;99.90;;;;;;4978567;28;20440;-91
2022/12/29 13:37:52;;;;;;;11.80;2.20;;;8.50;99.90;;;;;;4904299;29;20114;-91
2022/12/29 13:40:24;;;;;;;3.92;1.50;;;8.30;99.90;;;;;;4905825;29;20036;-91
2022/12/29 13:42:51;;;;;;;14.73;2.17;;;8.10;99.90;;;;;;4903925;29;20548;-90
2022/12/29 13:45:21;;;;;;;8.13;2.35;;;8.00;99.90;;;;;;4903742;29;20530;-91
2022/12/29 13:47:57;;;;;;;7.07;1.20;;;7.90;99.90;;;;;;4918793;29;20036;-91
2022/12/29 13:50:26;;;;;;;7.50;1.20;;;7.80;99.90;;;;;;4901675;29;20082;-91
2022/12/29 13:53:18;;;;;;;12.07;1.60;;;7.70;99.90;;;;;;4901958;29;20498;-91
2022/12/29 13:56:05;;;;;;;8.27;1.38;;;7.80;99.90;;;;;;4901694;29;20088;-91
2022/12/29 13:58:35;;;;;;;12.30;2.92;;;7.80;99.90;;;;;;4901091;29;20045;-91
2022/12/29 14:01:10;;;;;;;11.98;1.45;;;7.70;99.90;;;;;;4901942;29;20040;-91
2022/12/29 14:03:47;;;;;;;7.20;1.10;;;7.70;99.90;;;;;;4917576;29;20043;-92
2022/12/29 14:06:24;;;;;;;6.78;1.65;;;8.00;99.90;;;;;;4901564;29;20047;-91
2022/12/29 14:09:01;;;;;;;8.05;1.83;;;8.70;99.90;;;;;;4901196;29;20119;-91
2022/12/29 14:11:36;;;;;;;8.70;1.55;;;9.10;99.90;;;;;;4949950;28;20030;-90